sensor_id;sensor_type;location;lat;lon;timestamp;P1;durP1;ratioP1;P2;durP2;ratioP2
61407;SDS011;47274;43.054;25.146;2023-02-03T13:29:45;9.53;;;5.13;;
61407;SDS011;47274;43.054;25.146;2023-02-03T13:40:31;9.53;;;5.47;;
61407;SDS011;47274;43.054;25.146;2023-02-03T13:43:04;45.70;;;24.00;;
61407;SDS011;47274;43.054;25.146;2023-02-03T13:45:45;57.80;;;28.40;;
61407;SDS011;47274;43.054;25.146;2023-02-03T13:48:16;33.03;;;14.40;;
61407;SDS011;47274;43.054;25.146;2023-02-03T13:50:50;33.40;;;14.53;;
61407;SDS011;47274;43.054;25.146;2023-02-03T13:53:38;28.23;;;11.93;;
61407;SDS011;47274;43.054;25.146;2023-02-03T13:56:06;17.93;;;6.67;;
61407;SDS011;47274;43.054;25.146;2023-02-03T13:58:40;18.73;;;7.87;;
61407;SDS011;47274;43.054;25.146;2023-02-03T14:01:41;25.23;;;11.37;;
61407;SDS011;47274;43.054;25.146;2023-02-03T14:04:02;9.97;;;4.83;;
61407;SDS011;47274;43.054;25.146;2023-02-03T14:14:41;13.43;;;6.03;;
61407;SDS011;47274;43.054;25.146;2023-02-03T14:22:50;18.27;;;7.73;;
61407;SDS011;47274;43.054;25.146;2023-02-03T14:25:23;15.90;;;6.17;;
61407;SDS011;47274;43.054;25.146;2023-02-03T14:28:01;17.17;;;7.47;;
61407;SDS011;47274;43.054;25.146;2023-02-03T14:38:54;21.67;;;9.47;;
61407;SDS011;47274;43.054;25.146;2023-02-03T14:41:31;17.13;;;7.70;;
61407;SDS011;47274;43.054;25.146;2023-02-03T14:55:34;13.23;;;6.67;;
61407;SDS011;47274;43.054;25.146;2023-02-03T14:58:30;15.47;;;6.10;;
61407;SDS011;47274;43.054;25.146;2023-02-03T15:01:03;15.87;;;6.53;;
61407;SDS011;47274;43.054;25.146;2023-02-03T15:03:29;12.80;;;5.77;;
61407;SDS011;47274;43.054;25.146;2023-02-03T15:05:57;16.60;;;6.53;;
61407;SDS011;47274;43.054;25.146;2023-02-03T15:11:13;11.27;;;5.73;;
61407;SDS011;47274;43.054;25.146;2023-02-03T15:13:50;10.33;;;5.37;;
61407;SDS011;47274;43.054;25.146;2023-02-03T15:16:20;8.37;;;4.70;;
61407;SDS011;47274;43.054;25.146;2023-02-03T15:18:58;10.10;;;5.60;;
61407;SDS011;47274;43.054;25.146;2023-02-03T15:21:25;12.17;;;5.20;;
61407;SDS011;47274;43.054;25.146;2023-02-03T15:23:51;12.23;;;5.63;;
61407;SDS011;47274;43.054;25.146;2023-02-03T15:26:25;14.47;;;7.13;;
61407;SDS011;47274;43.054;25.146;2023-02-03T15:28:58;24.13;;;11.37;;
61407;SDS011;47274;43.054;25.146;2023-02-03T15:31:32;15.57;;;6.10;;
61407;SDS011;47274;43.054;25.146;2023-02-03T15:34:05;20.70;;;9.37;;
61407;SDS011;47274;43.054;25.146;2023-02-03T15:36:58;15.60;;;6.23;;
61407;SDS011;47274;43.054;25.146;2023-02-03T15:42:34;12.30;;;5.63;;
61407;SDS011;47274;43.054;25.146;2023-02-03T15:48:00;14.33;;;6.27;;
61407;SDS011;47274;43.054;25.146;2023-02-03T15:50:38;18.30;;;7.00;;
61407;SDS011;47274;43.054;25.146;2023-02-03T15:53:21;18.10;;;6.87;;
61407;SDS011;47274;43.054;25.146;2023-02-03T15:56:00;16.73;;;5.33;;
61407;SDS011;47274;43.054;25.146;2023-02-03T15:58:32;10.67;;;5.10;;
61407;SDS011;47274;43.054;25.146;2023-02-03T16:01:07;9.97;;;4.97;;
61407;SDS011;47274;43.054;25.146;2023-02-03T16:03:40;9.30;;;4.90;;
61407;SDS011;47274;43.054;25.146;2023-02-03T16:09:05;7.83;;;3.90;;
61407;SDS011;47274;43.054;25.146;2023-02-03T16:11:35;7.70;;;4.00;;
61407;SDS011;47274;43.054;25.146;2023-02-03T16:14:03;8.17;;;4.50;;
61407;SDS011;47274;43.054;25.146;2023-02-03T16:19:15;12.50;;;5.53;;
61407;SDS011;47274;43.054;25.146;2023-02-03T16:24:34;16.25;;;6.00;;
61407;SDS011;47274;43.054;25.146;2023-02-03T16:27:20;16.45;;;5.78;;
61407;SDS011;47274;43.054;25.146;2023-02-03T16:29:51;21.17;;;7.47;;
61407;SDS011;47274;43.054;25.146;2023-02-03T16:32:36;19.63;;;6.87;;
61407;SDS011;47274;43.054;25.146;2023-02-03T16:35:22;20.30;;;7.50;;
61407;SDS011;47274;43.054;25.146;2023-02-03T16:38:14;20.33;;;7.80;;
61407;SDS011;47274;43.054;25.146;2023-02-03T16:41:04;19.60;;;8.10;;
61407;SDS011;47274;43.054;25.146;2023-02-03T16:44:00;17.47;;;6.93;;
61407;SDS011;47274;43.054;25.146;2023-02-03T16:46:48;19.43;;;8.00;;
61407;SDS011;47274;43.054;25.146;2023-02-03T16:49:33;15.77;;;6.83;;
61407;SDS011;47274;43.054;25.146;2023-02-03T16:52:19;18.00;;;7.37;;
61407;SDS011;47274;43.054;25.146;2023-02-03T16:54:49;10.97;;;5.13;;
61407;SDS011;47274;43.054;25.146;2023-02-03T16:57:17;15.07;;;6.60;;
61407;SDS011;47274;43.054;25.146;2023-02-03T16:59:46;17.23;;;7.20;;
61407;SDS011;47274;43.054;25.146;2023-02-03T17:02:12;16.23;;;6.77;;
61407;SDS011;47274;43.054;25.146;2023-02-03T17:04:38;17.63;;;8.50;;
61407;SDS011;47274;43.054;25.146;2023-02-03T17:07:04;11.80;;;5.77;;
61407;SDS011;47274;43.054;25.146;2023-02-03T17:09:30;13.97;;;6.30;;
61407;SDS011;47274;43.054;25.146;2023-02-03T17:12:00;21.37;;;9.13;;
61407;SDS011;47274;43.054;25.146;2023-02-03T17:14:27;24.90;;;12.43;;
61407;SDS011;47274;43.054;25.146;2023-02-03T17:16:55;29.67;;;14.00;;
61407;SDS011;47274;43.054;25.146;2023-02-03T17:19:21;27.83;;;11.67;;
61407;SDS011;47274;43.054;25.146;2023-02-03T17:21:47;25.63;;;10.50;;
61407;SDS011;47274;43.054;25.146;2023-02-03T17:24:13;16.67;;;7.00;;
61407;SDS011;47274;43.054;25.146;2023-02-03T17:26:42;14.23;;;6.53;;
61407;SDS011;47274;43.054;25.146;2023-02-03T17:29:08;15.67;;;6.13;;
61407;SDS011;47274;43.054;25.146;2023-02-03T17:31:34;12.90;;;5.87;;
61407;SDS011;47274;43.054;25.146;2023-02-03T17:34:02;17.60;;;6.70;;
61407;SDS011;47274;43.054;25.146;2023-02-03T17:36:29;17.63;;;7.13;;
61407;SDS011;47274;43.054;25.146;2023-02-03T17:38:58;9.30;;;4.10;;
61407;SDS011;47274;43.054;25.146;2023-02-03T17:41:25;14.10;;;4.87;;
61407;SDS011;47274;43.054;25.146;2023-02-03T17:43:58;22.80;;;8.87;;
61407;SDS011;47274;43.054;25.146;2023-02-03T17:46:24;12.13;;;4.27;;
61407;SDS011;47274;43.054;25.146;2023-02-03T17:49:13;13.80;;;4.90;;
61407;SDS011;47274;43.054;25.146;2023-02-03T17:51:46;11.82;;;4.70;;
61407;SDS011;47274;43.054;25.146;2023-02-03T17:54:12;11.93;;;4.93;;
61407;SDS011;47274;43.054;25.146;2023-02-03T17:56:40;14.07;;;5.13;;
61407;SDS011;47274;43.054;25.146;2023-02-03T17:59:05;12.87;;;5.10;;
61407;SDS011;47274;43.054;25.146;2023-02-03T18:01:34;11.47;;;4.70;;
61407;SDS011;47274;43.054;25.146;2023-02-03T18:04:04;12.60;;;4.63;;
61407;SDS011;47274;43.054;25.146;2023-02-03T18:06:31;14.30;;;5.07;;
61407;SDS011;47274;43.054;25.146;2023-02-03T18:09:03;11.57;;;5.43;;
61407;SDS011;47274;43.054;25.146;2023-02-03T18:11:33;14.87;;;5.67;;
61407;SDS011;47274;43.054;25.146;2023-02-03T18:14:00;15.23;;;4.90;;
61407;SDS011;47274;43.054;25.146;2023-02-03T18:16:27;14.77;;;6.30;;
61407;SDS011;47274;43.054;25.146;2023-02-03T18:18:57;16.97;;;6.13;;
61407;SDS011;47274;43.054;25.146;2023-02-03T18:21:27;13.53;;;5.47;;
61407;SDS011;47274;43.054;25.146;2023-02-03T18:23:53;14.67;;;6.40;;
61407;SDS011;47274;43.054;25.146;2023-02-03T18:26:24;15.23;;;6.30;;
61407;SDS011;47274;43.054;25.146;2023-02-03T18:28:53;14.90;;;5.73;;
61407;SDS011;47274;43.054;25.146;2023-02-03T18:31:19;15.27;;;6.70;;
61407;SDS011;47274;43.054;25.146;2023-02-03T18:33:46;14.43;;;6.20;;
61407;SDS011;47274;43.054;25.146;2023-02-03T18:36:14;15.70;;;5.83;;
61407;SDS011;47274;43.054;25.146;2023-02-03T18:38:42;14.83;;;5.70;;
61407;SDS011;47274;43.054;25.146;2023-02-03T18:41:22;11.77;;;5.00;;
61407;SDS011;47274;43.054;25.146;2023-02-03T18:43:49;9.67;;;4.50;;
61407;SDS011;47274;43.054;25.146;2023-02-03T18:46:19;7.33;;;3.97;;
61407;SDS011;47274;43.054;25.146;2023-02-03T18:48:48;6.83;;;3.80;;
61407;SDS011;47274;43.054;25.146;2023-02-03T18:51:16;9.33;;;3.90;;
61407;SDS011;47274;43.054;25.146;2023-02-03T18:53:45;7.63;;;3.53;;
61407;SDS011;47274;43.054;25.146;2023-02-03T18:56:15;5.87;;;3.63;;
61407;SDS011;47274;43.054;25.146;2023-02-03T18:58:51;7.30;;;3.97;;
61407;SDS011;47274;43.054;25.146;2023-02-03T19:01:25;5.87;;;3.83;;
61407;SDS011;47274;43.054;25.146;2023-02-03T19:03:53;7.13;;;3.70;;
61407;SDS011;47274;43.054;25.146;2023-02-03T19:06:20;8.40;;;4.20;;
61407;SDS011;47274;43.054;25.146;2023-02-03T19:08:46;7.20;;;3.57;;
61407;SDS011;47274;43.054;25.146;2023-02-03T19:11:13;7.93;;;3.80;;
61407;SDS011;47274;43.054;25.146;2023-02-03T19:13:42;7.03;;;3.70;;
61407;SDS011;47274;43.054;25.146;2023-02-03T19:16:10;5.43;;;3.33;;
61407;SDS011;47274;43.054;25.146;2023-02-03T19:18:39;9.37;;;3.67;;
61407;SDS011;47274;43.054;25.146;2023-02-03T19:21:06;6.57;;;3.30;;
61407;SDS011;47274;43.054;25.146;2023-02-03T19:23:32;9.47;;;3.80;;
61407;SDS011;47274;43.054;25.146;2023-02-03T19:25:59;6.20;;;3.20;;
61407;SDS011;47274;43.054;25.146;2023-02-03T19:28:26;8.23;;;3.57;;
61407;SDS011;47274;43.054;25.146;2023-02-03T19:30:53;7.07;;;3.23;;
61407;SDS011;47274;43.054;25.146;2023-02-03T19:33:21;7.67;;;3.80;;
61407;SDS011;47274;43.054;25.146;2023-02-03T19:35:49;5.90;;;3.43;;
61407;SDS011;47274;43.054;25.146;2023-02-03T19:38:17;5.90;;;3.63;;
61407;SDS011;47274;43.054;25.146;2023-02-03T19:40:45;9.57;;;4.13;;
61407;SDS011;47274;43.054;25.146;2023-02-03T19:43:11;6.90;;;3.77;;
61407;SDS011;47274;43.054;25.146;2023-02-03T19:45:38;8.17;;;3.90;;
61407;SDS011;47274;43.054;25.146;2023-02-03T19:48:05;8.07;;;3.87;;
61407;SDS011;47274;43.054;25.146;2023-02-03T19:50:32;6.50;;;3.50;;
61407;SDS011;47274;43.054;25.146;2023-02-03T19:53:01;6.57;;;3.47;;
61407;SDS011;47274;43.054;25.146;2023-02-03T19:55:30;6.10;;;3.60;;
61407;SDS011;47274;43.054;25.146;2023-02-03T19:57:57;9.27;;;4.00;;
61407;SDS011;47274;43.054;25.146;2023-02-03T20:00:25;6.63;;;3.67;;
61407;SDS011;47274;43.054;25.146;2023-02-03T20:02:52;7.13;;;3.90;;
61407;SDS011;47274;43.054;25.146;2023-02-03T20:05:21;6.87;;;3.97;;
61407;SDS011;47274;43.054;25.146;2023-02-03T20:07:47;8.97;;;3.80;;
61407;SDS011;47274;43.054;25.146;2023-02-03T20:10:13;7.47;;;3.50;;
61407;SDS011;47274;43.054;25.146;2023-02-03T20:12:41;7.40;;;3.70;;
61407;SDS011;47274;43.054;25.146;2023-02-03T20:15:07;7.57;;;3.83;;
61407;SDS011;47274;43.054;25.146;2023-02-03T20:17:33;7.63;;;3.93;;
61407;SDS011;47274;43.054;25.146;2023-02-03T20:19:59;7.20;;;3.73;;
61407;SDS011;47274;43.054;25.146;2023-02-03T20:22:25;6.53;;;3.80;;
61407;SDS011;47274;43.054;25.146;2023-02-03T20:24:52;6.13;;;3.63;;
61407;SDS011;47274;43.054;25.146;2023-02-03T20:27:20;6.83;;;4.10;;
61407;SDS011;47274;43.054;25.146;2023-02-03T20:29:50;7.77;;;3.60;;
61407;SDS011;47274;43.054;25.146;2023-02-03T20:32:17;7.33;;;3.90;;
61407;SDS011;47274;43.054;25.146;2023-02-03T20:34:46;8.73;;;3.73;;
61407;SDS011;47274;43.054;25.146;2023-02-03T20:37:13;5.87;;;3.43;;
61407;SDS011;47274;43.054;25.146;2023-02-03T20:39:39;10.10;;;4.07;;
61407;SDS011;47274;43.054;25.146;2023-02-03T20:42:13;7.10;;;4.10;;
61407;SDS011;47274;43.054;25.146;2023-02-03T20:44:48;6.27;;;3.80;;
61407;SDS011;47274;43.054;25.146;2023-02-03T20:47:14;9.87;;;4.30;;
61407;SDS011;47274;43.054;25.146;2023-02-03T20:49:47;6.28;;;4.00;;
61407;SDS011;47274;43.054;25.146;2023-02-03T20:52:18;8.83;;;4.10;;
61407;SDS011;47274;43.054;25.146;2023-02-03T20:54:46;7.93;;;4.33;;
61407;SDS011;47274;43.054;25.146;2023-02-03T20:57:15;9.33;;;4.07;;
61407;SDS011;47274;43.054;25.146;2023-02-03T20:59:43;10.87;;;4.80;;
61407;SDS011;47274;43.054;25.146;2023-02-03T21:02:19;9.00;;;4.40;;
61407;SDS011;47274;43.054;25.146;2023-02-03T21:07:26;11.87;;;4.60;;
61407;SDS011;47274;43.054;25.146;2023-02-03T21:09:56;7.87;;;4.10;;
61407;SDS011;47274;43.054;25.146;2023-02-03T21:12:26;8.80;;;4.43;;
61407;SDS011;47274;43.054;25.146;2023-02-03T21:14:57;8.27;;;4.27;;
61407;SDS011;47274;43.054;25.146;2023-02-03T21:17:25;10.93;;;4.60;;
61407;SDS011;47274;43.054;25.146;2023-02-03T21:19:52;7.70;;;4.60;;
61407;SDS011;47274;43.054;25.146;2023-02-03T21:22:25;9.97;;;4.40;;
61407;SDS011;47274;43.054;25.146;2023-02-03T21:24:56;9.27;;;4.57;;
61407;SDS011;47274;43.054;25.146;2023-02-03T21:27:27;9.77;;;4.43;;
61407;SDS011;47274;43.054;25.146;2023-02-03T21:29:56;9.97;;;5.00;;
61407;SDS011;47274;43.054;25.146;2023-02-03T21:32:24;11.30;;;5.20;;
61407;SDS011;47274;43.054;25.146;2023-02-03T21:34:53;13.03;;;5.17;;
61407;SDS011;47274;43.054;25.146;2023-02-03T21:39:45;10.60;;;5.00;;
61407;SDS011;47274;43.054;25.146;2023-02-03T21:42:19;10.87;;;4.80;;
61407;SDS011;47274;43.054;25.146;2023-02-03T21:47:46;11.10;;;5.20;;
61407;SDS011;47274;43.054;25.146;2023-02-03T21:55:49;13.87;;;5.37;;
61407;SDS011;47274;43.054;25.146;2023-02-03T22:00:57;10.30;;;4.40;;
61407;SDS011;47274;43.054;25.146;2023-02-03T22:03:25;7.83;;;3.80;;
61407;SDS011;47274;43.054;25.146;2023-02-03T22:06:12;7.77;;;4.00;;
61407;SDS011;47274;43.054;25.146;2023-02-03T22:08:50;9.17;;;4.20;;
61407;SDS011;47274;43.054;25.146;2023-02-03T22:11:18;9.43;;;4.33;;
61407;SDS011;47274;43.054;25.146;2023-02-03T22:13:46;11.30;;;4.40;;
61407;SDS011;47274;43.054;25.146;2023-02-03T22:16:13;12.77;;;4.80;;
61407;SDS011;47274;43.054;25.146;2023-02-03T22:18:45;7.47;;;4.27;;
61407;SDS011;47274;43.054;25.146;2023-02-03T22:21:14;8.87;;;4.20;;
61407;SDS011;47274;43.054;25.146;2023-02-03T22:23:42;6.90;;;3.90;;
61407;SDS011;47274;43.054;25.146;2023-02-03T22:26:09;5.93;;;3.90;;
61407;SDS011;47274;43.054;25.146;2023-02-03T22:28:38;7.37;;;3.50;;
61407;SDS011;47274;43.054;25.146;2023-02-03T22:31:10;17.00;;;7.77;;
61407;SDS011;47274;43.054;25.146;2023-02-03T22:33:37;7.47;;;4.23;;
61407;SDS011;47274;43.054;25.146;2023-02-03T22:36:04;9.63;;;4.70;;
61407;SDS011;47274;43.054;25.146;2023-02-03T22:38:33;9.97;;;5.07;;
61407;SDS011;47274;43.054;25.146;2023-02-03T22:41:01;13.30;;;5.70;;
61407;SDS011;47274;43.054;25.146;2023-02-03T22:43:28;8.40;;;4.20;;
61407;SDS011;47274;43.054;25.146;2023-02-03T22:45:54;13.43;;;5.67;;
61407;SDS011;47274;43.054;25.146;2023-02-03T22:48:20;12.87;;;6.10;;
61407;SDS011;47274;43.054;25.146;2023-02-03T22:50:49;44.27;;;26.80;;
61407;SDS011;47274;43.054;25.146;2023-02-03T22:53:15;28.47;;;12.87;;
61407;SDS011;47274;43.054;25.146;2023-02-03T22:55:42;30.00;;;12.73;;
61407;SDS011;47274;43.054;25.146;2023-02-03T22:58:08;42.50;;;17.33;;
61407;SDS011;47274;43.054;25.146;2023-02-03T23:00:34;48.73;;;23.27;;
61407;SDS011;47274;43.054;25.146;2023-02-03T23:03:00;38.57;;;18.93;;
61407;SDS011;47274;43.054;25.146;2023-02-03T23:05:29;19.33;;;7.23;;
61407;SDS011;47274;43.054;25.146;2023-02-03T23:07:55;21.67;;;8.93;;
61407;SDS011;47274;43.054;25.146;2023-02-03T23:10:23;25.30;;;11.57;;
61407;SDS011;47274;43.054;25.146;2023-02-03T23:13:00;31.23;;;14.67;;
61407;SDS011;47274;43.054;25.146;2023-02-03T23:15:28;27.73;;;12.67;;
61407;SDS011;47274;43.054;25.146;2023-02-03T23:17:55;30.47;;;13.97;;
61407;SDS011;47274;43.054;25.146;2023-02-03T23:20:21;24.83;;;11.23;;
61407;SDS011;47274;43.054;25.146;2023-02-03T23:22:48;18.33;;;7.40;;
61407;SDS011;47274;43.054;25.146;2023-02-03T23:25:17;18.60;;;8.57;;
61407;SDS011;47274;43.054;25.146;2023-02-03T23:27:47;18.05;;;8.10;;
61407;SDS011;47274;43.054;25.146;2023-02-03T23:30:14;11.67;;;5.87;;
61407;SDS011;47274;43.054;25.146;2023-02-03T23:32:40;12.43;;;5.50;;
61407;SDS011;47274;43.054;25.146;2023-02-03T23:35:07;9.20;;;5.20;;
61407;SDS011;47274;43.054;25.146;2023-02-03T23:37:52;12.30;;;5.00;;
61407;SDS011;47274;43.054;25.146;2023-02-03T23:40:21;10.17;;;5.10;;
61407;SDS011;47274;43.054;25.146;2023-02-03T23:42:47;9.53;;;5.20;;
61407;SDS011;47274;43.054;25.146;2023-02-03T23:45:14;10.07;;;4.93;;
61407;SDS011;47274;43.054;25.146;2023-02-03T23:47:41;10.40;;;4.57;;
61407;SDS011;47274;43.054;25.146;2023-02-03T23:50:12;12.83;;;5.87;;
61407;SDS011;47274;43.054;25.146;2023-02-03T23:52:39;12.07;;;5.77;;
61407;SDS011;47274;43.054;25.146;2023-02-03T23:55:10;11.27;;;5.77;;
61407;SDS011;47274;43.054;25.146;2023-02-03T23:57:42;14.90;;;6.97;;
